createdAt,value
2019-05-15T00:00:09.832Z,10.69
2019-05-15T00:01:45.848Z,10.68
2019-05-15T00:03:22.544Z,10.68
2019-05-15T00:04:58.577Z,10.67
2019-05-15T00:06:34.822Z,10.67
2019-05-15T00:08:10.355Z,10.66
2019-05-15T00:09:48.980Z,10.67
2019-05-15T00:11:23.858Z,10.68
2019-05-15T00:13:00.077Z,10.67
2019-05-15T00:14:35.606Z,10.67
2019-05-15T00:16:12.127Z,10.67
2019-05-15T00:17:48.565Z,10.69
2019-05-15T00:19:25.159Z,10.68
2019-05-15T00:21:00.692Z,10.68
2019-05-15T00:22:38.823Z,10.68
2019-05-15T00:24:14.156Z,10.68
2019-05-15T00:25:51.652Z,10.68
2019-05-15T00:27:28.518Z,10.67
2019-05-15T00:29:12.742Z,10.68
2019-05-15T00:30:42.064Z,10.68
2019-05-15T00:32:18.657Z,10.68
2019-05-15T00:33:54.522Z,10.68
2019-05-15T00:35:30.855Z,10.67
2019-05-15T00:37:08.910Z,10.68
2019-05-15T00:38:44.406Z,10.66
2019-05-15T00:40:20.100Z,10.66
2019-05-15T00:41:58.865Z,10.67
2019-05-15T00:43:33.592Z,10.68
2019-05-15T00:45:11.408Z,10.66
2019-05-15T00:46:48.810Z,10.66
2019-05-15T00:48:29.027Z,10.65
2019-05-15T00:50:08.937Z,10.63
2019-05-15T00:51:45.320Z,10.63
2019-05-15T00:53:22.091Z,10.62
2019-05-15T00:54:58.960Z,10.62
2019-05-15T00:56:34.622Z,10.61
2019-05-15T00:58:10.874Z,10.61
2019-05-15T00:59:48.344Z,10.61
2019-05-15T01:01:24.661Z,10.58
2019-05-15T01:03:00.449Z,10.60
2019-05-15T01:04:38.907Z,10.58
2019-05-15T01:06:14.251Z,10.58
2019-05-15T01:07:50.516Z,10.58
2019-05-15T01:09:26.085Z,10.57
2019-05-15T01:11:02.315Z,10.56
2019-05-15T01:12:39.018Z,10.56
2019-05-15T01:14:15.273Z,10.57
2019-05-15T01:15:50.814Z,10.56
2019-05-15T01:17:29.015Z,10.56
2019-05-15T01:19:04.389Z,10.56
2019-05-15T01:20:40.653Z,10.56
2019-05-15T01:22:16.206Z,10.54
2019-05-15T01:23:53.429Z,10.54
2019-05-15T01:25:28.955Z,10.53
2019-05-15T01:27:05.510Z,10.53
2019-05-15T01:28:41.042Z,10.53
2019-05-15T01:30:18.130Z,10.52
2019-05-15T01:31:53.661Z,10.52
2019-05-15T01:33:29.925Z,10.52
2019-05-15T01:35:09.236Z,10.52
2019-05-15T01:36:44.868Z,10.52
2019-05-15T01:38:20.401Z,10.52
2019-05-15T01:39:58.142Z,10.50
2019-05-15T01:41:33.842Z,10.51
2019-05-15T01:43:10.110Z,10.49
2019-05-15T01:44:48.250Z,10.50
2019-05-15T01:46:24.158Z,10.48
2019-05-15T01:47:59.726Z,10.48
2019-05-15T01:49:38.239Z,10.49
2019-05-15T01:51:13.202Z,10.49
2019-05-15T01:52:49.476Z,10.48
2019-05-15T01:54:24.996Z,10.48
2019-05-15T01:56:01.261Z,10.47
2019-05-15T01:57:38.365Z,10.47
2019-05-15T01:59:18.917Z,10.49
2019-05-15T02:00:54.595Z,10.48
2019-05-15T02:02:31.954Z,10.46
2019-05-15T02:04:08.341Z,10.45
2019-05-15T02:05:44.653Z,10.46
2019-05-15T02:07:20.427Z,10.46
2019-05-15T02:08:58.679Z,10.45
2019-05-15T02:10:33.915Z,10.46
2019-05-15T02:12:10.173Z,10.45
2019-05-15T02:13:47.908Z,10.46
2019-05-15T02:15:23.753Z,10.46
2019-05-15T02:16:59.284Z,10.44
2019-05-15T02:18:35.838Z,10.45
2019-05-15T02:20:11.581Z,10.45
2019-05-15T02:21:48.617Z,10.43
2019-05-15T02:23:24.348Z,10.45
2019-05-15T02:25:00.669Z,10.42
2019-05-15T02:26:38.687Z,10.42
2019-05-15T02:28:14.458Z,10.42
2019-05-15T02:29:49.971Z,10.41
2019-05-15T02:31:29.839Z,10.40
2019-05-15T02:33:03.455Z,10.39
2019-05-15T02:34:39.936Z,10.38
2019-05-15T02:36:15.539Z,10.38
2019-05-15T02:37:51.787Z,10.38
2019-05-15T02:39:29.008Z,10.38
2019-05-15T02:41:05.579Z,10.37
2019-05-15T02:42:41.441Z,10.36
2019-05-15T02:44:20.007Z,10.36
2019-05-15T02:45:54.923Z,10.35
2019-05-15T02:47:31.366Z,10.34
2019-05-15T02:49:08.778Z,10.34
2019-05-15T02:50:44.869Z,10.33
2019-05-15T02:52:20.390Z,10.32
2019-05-15T02:53:58.603Z,10.30
2019-05-15T02:55:33.969Z,10.29
2019-05-15T02:57:10.237Z,10.28
2019-05-15T02:58:48.814Z,10.25
2019-05-15T03:00:40.076Z,10.25
2019-05-15T03:02:00.985Z,10.23
2019-05-15T03:03:38.691Z,10.22
2019-05-15T03:05:14.541Z,10.21
2019-05-15T03:06:50.815Z,10.18
2019-05-15T03:08:29.538Z,10.17
2019-05-15T03:10:04.896Z,10.17
2019-05-15T03:11:41.074Z,10.16
2019-05-15T03:13:18.874Z,10.16
2019-05-15T03:14:54.576Z,10.14
2019-05-15T03:16:30.826Z,10.13
2019-05-15T03:18:09.595Z,10.11
2019-05-15T03:19:44.897Z,10.10
2019-05-15T03:21:20.679Z,10.10
2019-05-15T03:22:59.529Z,10.08
2019-05-15T03:24:34.145Z,10.08
2019-05-15T03:26:10.402Z,10.06
2019-05-15T03:27:45.961Z,10.05
2019-05-15T03:29:22.231Z,10.04
2019-05-15T03:32:46.581Z,10.04
2019-05-15T03:34:21.505Z,10.01
2019-05-15T03:35:54.150Z,10.00
2019-05-15T03:37:33.154Z,10.00
2019-05-15T03:39:09.685Z,10.00
2019-05-15T03:40:45.487Z,9.99
2019-05-15T03:42:21.743Z,10.00
2019-05-15T03:43:59.632Z,10.00
2019-05-15T03:45:35.230Z,9.99
2019-05-15T03:47:10.848Z,9.98
2019-05-15T03:48:48.728Z,9.98
2019-05-15T03:50:24.571Z,9.97
2019-05-15T03:52:00.970Z,9.98
2019-05-15T03:53:39.579Z,9.97
2019-05-15T03:55:14.168Z,9.98
2019-05-15T03:56:50.273Z,9.97
2019-05-15T03:58:28.849Z,9.96
2019-05-15T04:00:05.017Z,9.95
2019-05-15T04:01:43.899Z,9.96
2019-05-15T04:03:20.185Z,9.96
2019-05-15T04:05:00.685Z,9.96
2019-05-15T04:06:34.020Z,9.95
2019-05-15T04:08:11.174Z,9.96
2019-05-15T04:09:49.400Z,9.96
2019-05-15T04:11:24.937Z,9.97
2019-05-15T04:13:01.537Z,9.96
2019-05-15T04:14:39.412Z,9.94
2019-05-15T04:16:15.296Z,9.95
2019-05-15T04:17:51.836Z,9.96
2019-05-15T04:19:29.669Z,9.98
2019-05-15T04:21:05.345Z,9.99
2019-05-15T04:22:40.894Z,10.01
2019-05-15T04:24:19.017Z,10.00
2019-05-15T04:25:54.484Z,10.01
2019-05-15T04:27:31.663Z,10.03
2019-05-15T04:29:09.786Z,10.04
2019-05-15T04:30:45.216Z,10.05
2019-05-15T04:32:20.751Z,10.07
2019-05-15T04:33:59.214Z,10.08
2019-05-15T04:35:34.024Z,10.12
2019-05-15T04:37:10.283Z,10.14
2019-05-15T04:38:49.370Z,10.17
2019-05-15T04:40:23.871Z,10.19
2019-05-15T04:41:59.388Z,10.22
2019-05-15T04:43:41.337Z,10.23
2019-05-15T04:45:13.165Z,10.25
2019-05-15T04:46:49.986Z,10.27
2019-05-15T04:48:29.686Z,10.30
2019-05-15T04:50:09.999Z,10.33
2019-05-15T04:51:45.576Z,10.34
2019-05-15T04:53:21.835Z,10.35
2019-05-15T04:55:00.706Z,10.37
2019-05-15T04:56:40.045Z,10.37
2019-05-15T04:58:14.224Z,10.39
2019-05-15T04:59:51.453Z,10.40
2019-05-15T05:01:28.894Z,10.43
2019-05-15T05:03:05.380Z,10.45
2019-05-15T05:04:41.154Z,10.46
2019-05-15T05:06:19.006Z,10.48
2019-05-15T05:07:54.820Z,10.50
2019-05-15T05:09:32.086Z,10.51
2019-05-15T05:11:09.737Z,10.53
2019-05-15T05:12:50.546Z,10.55
2019-05-15T05:14:23.077Z,10.57
2019-05-15T05:15:59.357Z,10.60
2019-05-15T05:17:34.896Z,10.61
2019-05-15T05:19:11.172Z,10.63
2019-05-15T05:20:48.506Z,10.64
2019-05-15T05:22:28.228Z,10.66
2019-05-15T05:24:04.562Z,10.67
2019-05-15T05:25:41.040Z,10.68
2019-05-15T05:27:18.243Z,10.71
2019-05-15T05:28:54.668Z,10.72
2019-05-15T05:30:30.487Z,10.72
2019-05-15T05:32:09.117Z,10.74
2019-05-15T05:33:44.102Z,10.76
2019-05-15T05:35:20.407Z,10.76
2019-05-15T05:36:58.721Z,10.76
2019-05-15T05:38:33.928Z,10.80
2019-05-15T05:40:09.926Z,10.83
2019-05-15T05:41:48.559Z,10.84
2019-05-15T05:43:23.430Z,10.87
2019-05-15T05:44:59.790Z,10.89
2019-05-15T05:46:35.596Z,10.90
2019-05-15T05:48:12.180Z,10.92
2019-05-15T05:49:48.795Z,10.96
2019-05-15T05:51:25.323Z,10.96
2019-05-15T05:53:00.867Z,10.97
2019-05-15T05:54:38.241Z,10.97
2019-05-15T05:56:13.909Z,10.98
2019-05-15T05:57:53.071Z,11.00
2019-05-15T05:59:28.639Z,11.01
2019-05-15T06:01:04.986Z,11.01
2019-05-15T06:02:48.108Z,11.04
2019-05-15T06:04:19.412Z,11.05
2019-05-15T06:05:55.004Z,11.06
2019-05-15T06:07:31.282Z,11.08
2019-05-15T06:09:09.194Z,11.08
2019-05-15T06:10:45.653Z,11.09
2019-05-15T06:12:21.325Z,11.11
2019-05-15T06:13:58.417Z,11.13
2019-05-15T06:15:34.424Z,11.18
2019-05-15T06:17:10.683Z,11.19
2019-05-15T06:18:46.274Z,11.23
2019-05-15T06:20:22.559Z,11.25
2019-05-15T06:22:00.907Z,11.29
2019-05-15T06:23:36.487Z,11.31
2019-05-15T06:25:12.238Z,11.33
2019-05-15T06:26:48.486Z,11.36
2019-05-15T06:28:24.015Z,11.39
2019-05-15T06:30:00.290Z,11.41
2019-05-15T06:31:38.799Z,11.45
2019-05-15T06:33:14.875Z,11.49
2019-05-15T06:34:50.836Z,11.52
2019-05-15T06:36:28.864Z,11.57
2019-05-15T06:38:04.685Z,11.61
2019-05-15T06:39:40.975Z,11.64
2019-05-15T06:41:18.136Z,11.65
2019-05-15T06:42:54.692Z,11.67
2019-05-15T06:44:30.224Z,11.68
2019-05-15T06:46:08.912Z,11.70
2019-05-15T06:47:43.749Z,11.72
2019-05-15T06:49:19.992Z,11.75
2019-05-15T06:50:57.845Z,11.78
2019-05-15T06:52:33.495Z,11.78
2019-05-15T06:54:09.022Z,11.81
2019-05-15T06:55:48.551Z,11.84
2019-05-15T06:57:22.920Z,11.86
2019-05-15T06:58:59.193Z,11.89
2019-05-15T07:00:35.101Z,11.95
2019-05-15T07:02:11.362Z,12.00
2019-05-15T07:03:48.404Z,12.06
2019-05-15T07:05:24.921Z,12.14
2019-05-15T07:07:00.514Z,12.21
2019-05-15T07:08:38.240Z,12.28
2019-05-15T07:10:14.274Z,12.35
2019-05-15T07:11:52.074Z,12.43
2019-05-15T07:13:28.990Z,12.51
2019-05-15T07:15:09.045Z,12.57
2019-05-15T07:16:44.930Z,12.63
2019-05-15T07:18:21.597Z,12.67
2019-05-15T07:19:59.299Z,12.72
2019-05-15T07:21:35.127Z,12.78
2019-05-15T07:23:10.706Z,12.81
2019-05-15T07:24:47.814Z,12.83
2019-05-15T07:26:23.476Z,12.87
2019-05-15T07:28:00.514Z,12.90
2019-05-15T07:29:38.395Z,12.92
2019-05-15T07:31:13.993Z,12.94
2019-05-15T07:32:49.511Z,12.93
2019-05-15T07:34:28.180Z,12.92
2019-05-15T07:36:03.075Z,12.91
2019-05-15T07:37:39.715Z,12.92
2019-05-15T07:39:17.963Z,12.95
2019-05-15T07:41:00.057Z,12.99
2019-05-15T07:42:31.688Z,13.02
2019-05-15T07:44:07.984Z,13.05
2019-05-15T07:45:44.717Z,13.07
2019-05-15T07:47:21.174Z,13.11
2019-05-15T07:48:58.371Z,13.10
2019-05-15T07:50:35.017Z,13.10
2019-05-15T07:52:10.555Z,13.07
2019-05-15T07:53:48.944Z,13.03
2019-05-15T07:55:24.065Z,13.01
2019-05-15T07:57:00.602Z,12.97
2019-05-15T07:58:38.440Z,12.94
2019-05-15T08:00:19.674Z,12.89
2019-05-15T08:01:57.975Z,12.86
2019-05-15T08:03:34.521Z,12.79
2019-05-15T08:05:11.225Z,12.71
2019-05-15T08:06:49.019Z,12.66
2019-05-15T08:08:24.758Z,12.63
2019-05-15T08:10:00.921Z,12.61
2019-05-15T08:11:38.993Z,12.61
2019-05-15T08:13:14.498Z,12.62
2019-05-15T08:14:51.062Z,12.62
2019-05-15T08:16:28.685Z,12.62
2019-05-15T08:18:09.894Z,12.61
2019-05-15T08:19:44.178Z,12.61
2019-05-15T08:21:20.155Z,12.61
2019-05-15T08:22:58.268Z,12.61
2019-05-15T08:24:33.684Z,12.61
2019-05-15T08:26:09.611Z,12.59
2019-05-15T08:27:48.287Z,12.59
2019-05-15T08:29:23.231Z,12.60
2019-05-15T08:30:59.180Z,12.58
2019-05-15T08:32:35.286Z,12.58
2019-05-15T08:34:15.900Z,12.56
2019-05-15T08:35:51.805Z,12.56
2019-05-15T08:37:29.120Z,12.56
2019-05-15T08:39:05.688Z,12.55
2019-05-15T08:40:41.579Z,12.57
2019-05-15T08:42:18.869Z,12.60
2019-05-15T08:43:55.042Z,12.63
2019-05-15T08:45:30.949Z,12.65
2019-05-15T08:47:08.190Z,12.64
2019-05-15T08:48:44.689Z,12.66
2019-05-15T08:50:21.969Z,12.67
2019-05-15T08:51:58.421Z,12.69
2019-05-15T08:53:34.460Z,12.69
2019-05-15T08:55:10.677Z,12.70
2019-05-15T08:56:48.395Z,12.73
2019-05-15T08:58:24.166Z,12.73
2019-05-15T09:00:00.164Z,12.78
2019-05-15T09:01:38.128Z,12.79
2019-05-15T09:03:14.624Z,12.82
2019-05-15T09:04:50.533Z,12.85
2019-05-15T09:06:29.086Z,12.88
2019-05-15T09:08:09.223Z,12.90
2019-05-15T09:09:44.874Z,12.91
2019-05-15T09:11:20.820Z,12.93
2019-05-15T09:12:58.606Z,12.95
2019-05-15T09:14:34.751Z,12.98
2019-05-15T09:16:10.682Z,13.00
2019-05-15T09:17:48.866Z,13.02
2019-05-15T09:19:27.969Z,13.04
2019-05-15T09:21:03.487Z,13.06
2019-05-15T09:22:39.851Z,13.08
2019-05-15T09:24:16.039Z,13.08
2019-05-15T09:25:52.022Z,13.08
2019-05-15T09:27:28.259Z,13.06
2019-05-15T09:29:04.159Z,13.07
2019-05-15T09:30:42.994Z,13.04
2019-05-15T09:32:19.277Z,13.03
2019-05-15T09:33:58.384Z,13.03
2019-05-15T09:35:33.386Z,13.02
2019-05-15T09:37:09.299Z,13.01
2019-05-15T09:38:45.195Z,13.01
2019-05-15T09:40:21.178Z,13.02
2019-05-15T09:41:57.893Z,13.02
2019-05-15T09:43:34.236Z,13.04
2019-05-15T09:45:10.772Z,13.04
2019-05-15T09:46:48.774Z,13.04
2019-05-15T09:48:24.259Z,13.04
2019-05-15T09:50:00.183Z,13.03
2019-05-15T09:51:38.334Z,13.04
2019-05-15T09:53:13.698Z,13.04
2019-05-15T09:54:49.663Z,13.05
2019-05-15T09:56:28.910Z,13.03
2019-05-15T09:58:03.219Z,13.02
2019-05-15T09:59:39.296Z,13.02
2019-05-15T10:01:15.580Z,13.03
2019-05-15T10:02:51.513Z,13.04
2019-05-15T10:04:28.639Z,13.04
2019-05-15T10:06:04.913Z,13.06
2019-05-15T10:07:43.467Z,13.08
2019-05-15T10:09:19.070Z,13.11
2019-05-15T10:10:55.046Z,13.11
2019-05-15T10:12:34.939Z,13.14
2019-05-15T10:14:09.828Z,13.17
2019-05-15T10:15:50.232Z,13.19
2019-05-15T10:17:23.655Z,13.21
2019-05-15T10:18:59.564Z,13.23
2019-05-15T10:20:35.743Z,13.26
2019-05-15T10:22:12.163Z,13.27
2019-05-15T10:23:49.089Z,13.27
2019-05-15T10:25:28.030Z,13.28
2019-05-15T10:27:03.375Z,13.30
2019-05-15T10:28:39.662Z,13.30
2019-05-15T10:30:18.702Z,13.33
2019-05-15T10:31:53.981Z,13.36
2019-05-15T10:33:30.949Z,13.36
2019-05-15T10:35:24.514Z,13.36
2019-05-15T10:36:49.580Z,13.35
2019-05-15T10:38:28.294Z,13.33
2019-05-15T10:40:03.197Z,13.33
2019-05-15T10:41:39.101Z,13.32
2019-05-15T10:43:15.421Z,13.34
2019-05-15T10:44:51.309Z,13.36
2019-05-15T10:46:27.288Z,13.38
2019-05-15T10:48:03.572Z,13.43
2019-05-15T10:49:39.494Z,13.47
2019-05-15T10:51:15.486Z,13.49
2019-05-15T10:52:51.437Z,13.52
2019-05-15T10:54:28.947Z,13.57
2019-05-15T10:56:05.004Z,13.60
2019-05-15T10:57:43.707Z,13.65
2019-05-15T10:59:18.597Z,13.71
2019-05-15T11:00:54.800Z,13.75
2019-05-15T11:02:30.745Z,13.78
2019-05-15T11:04:09.284Z,13.82
2019-05-15T11:05:46.055Z,13.83
2019-05-15T11:07:21.966Z,13.85
2019-05-15T11:08:58.351Z,13.87
2019-05-15T11:10:38.603Z,13.91
2019-05-15T11:12:13.322Z,13.95
2019-05-15T11:13:49.548Z,13.99
2019-05-15T11:15:28.948Z,14.02
2019-05-15T11:17:05.797Z,14.07
2019-05-15T11:18:41.996Z,14.12
2019-05-15T11:20:20.533Z,14.18
2019-05-15T11:21:58.343Z,14.25
2019-05-15T11:23:34.079Z,14.30
2019-05-15T11:25:10.526Z,14.33
2019-05-15T11:26:49.821Z,14.38
2019-05-15T11:28:24.171Z,14.43
2019-05-15T11:30:00.076Z,14.45
2019-05-15T11:31:35.973Z,14.46
2019-05-15T11:33:12.448Z,14.48
2019-05-15T11:34:49.250Z,14.51
2019-05-15T11:36:25.296Z,14.53
2019-05-15T11:38:01.274Z,14.56
2019-05-15T11:39:44.527Z,14.59
2019-05-15T11:41:15.057Z,14.61
2019-05-15T11:42:50.981Z,14.62
2019-05-15T11:44:28.317Z,14.60
2019-05-15T11:46:11.240Z,14.57
2019-05-15T11:47:48.339Z,14.52
2019-05-15T11:49:24.667Z,14.47
2019-05-15T11:51:01.082Z,14.42
2019-05-15T11:52:40.114Z,14.37
2019-05-15T11:54:14.697Z,14.34
2019-05-15T11:55:50.853Z,14.31
2019-05-15T11:57:39.113Z,14.29
2019-05-15T11:59:04.341Z,14.28
2019-05-15T12:00:40.760Z,14.27
2019-05-15T12:02:18.883Z,14.23
2019-05-15T12:03:54.532Z,14.21
2019-05-15T12:05:31.252Z,14.20
2019-05-15T12:07:08.721Z,14.20
2019-05-15T12:08:44.730Z,14.18
2019-05-15T12:10:20.786Z,14.18
2019-05-15T12:11:56.678Z,14.18
2019-05-15T12:13:33.541Z,14.17
2019-05-15T12:15:10.411Z,14.17
2019-05-15T12:17:04.699Z,14.15
2019-05-15T12:18:23.925Z,14.14
2019-05-15T12:20:05.660Z,14.13
2019-05-15T12:21:39.610Z,14.11
2019-05-15T12:23:15.010Z,14.09
2019-05-15T12:24:50.902Z,14.08
2019-05-15T12:26:29.200Z,14.05
2019-05-15T12:28:04.747Z,14.06
2019-05-15T12:29:40.688Z,14.05
2019-05-15T12:31:16.615Z,14.05
2019-05-15T12:32:52.513Z,14.05
2019-05-15T12:34:28.987Z,14.04
2019-05-15T12:36:05.061Z,14.04
2019-05-15T12:37:40.957Z,14.05
2019-05-15T12:39:21.815Z,14.03
2019-05-15T13:00:29.829Z,13.97
2019-05-15T13:02:05.293Z,13.97
2019-05-15T13:03:41.201Z,13.97
2019-05-15T13:05:19.239Z,13.99
2019-05-15T13:07:11.529Z,14.01
2019-05-15T13:08:32.568Z,14.03
2019-05-15T13:10:10.833Z,14.04
2019-05-15T13:11:48.488Z,14.08
2019-05-15T13:13:25.623Z,14.09
2019-05-15T13:15:02.382Z,14.07
2019-05-15T13:16:39.011Z,14.07
2019-05-15T13:18:15.356Z,14.05
2019-05-15T13:19:51.235Z,14.06
2019-05-15T13:21:29.464Z,14.06
2019-05-15T13:23:04.740Z,14.09
2019-05-15T13:24:40.655Z,14.11
2019-05-15T13:26:23.779Z,14.12
2019-05-15T13:27:54.165Z,14.12
2019-05-15T13:29:30.056Z,14.14
2019-05-15T13:31:06.013Z,14.15
2019-05-15T13:32:41.915Z,14.17
2019-05-15T13:34:19.615Z,14.17
2019-05-15T13:35:58.166Z,14.19
2019-05-15T13:37:33.037Z,14.18
2019-05-15T13:39:09.099Z,14.19
2019-05-15T13:40:45.264Z,14.19
2019-05-15T13:42:21.155Z,14.19
2019-05-15T13:43:58.381Z,14.20
2019-05-15T13:45:34.410Z,14.19
2019-05-15T13:47:10.354Z,14.19
2019-05-15T13:48:48.833Z,14.19
2019-05-15T13:50:23.947Z,14.19
2019-05-15T13:51:59.962Z,14.18
2019-05-15T13:53:38.496Z,14.20
2019-05-15T13:55:13.577Z,14.21
2019-05-15T13:56:49.555Z,14.24
2019-05-15T13:58:28.051Z,14.27
2019-05-15T14:00:03.342Z,14.29
2019-05-15T14:01:39.608Z,14.31
2019-05-15T14:03:15.499Z,14.34
2019-05-15T14:04:51.397Z,14.36
2019-05-15T14:06:28.623Z,14.39
2019-05-15T14:08:05.151Z,14.43
2019-05-15T14:09:44.294Z,14.49
2019-05-15T14:11:21.888Z,14.53
2019-05-15T14:12:58.284Z,14.55
2019-05-15T14:14:33.885Z,14.59
2019-05-15T14:16:10.031Z,14.61
2019-05-15T14:17:48.170Z,14.63
2019-05-15T14:19:24.536Z,14.66
2019-05-15T14:21:00.423Z,14.67
2019-05-15T14:22:38.665Z,14.69
2019-05-15T14:24:13.935Z,14.71
2019-05-15T14:25:50.117Z,14.73
2019-05-15T14:27:28.748Z,14.75
2019-05-15T14:29:05.676Z,14.76
2019-05-15T14:30:41.548Z,14.76
2019-05-15T14:32:32.820Z,14.77
2019-05-15T14:33:57.924Z,14.78
2019-05-15T14:35:33.350Z,14.79
2019-05-15T14:37:10.372Z,14.80
2019-05-15T14:38:48.412Z,14.81
2019-05-15T14:40:23.836Z,14.82
2019-05-15T14:41:59.721Z,14.83
2019-05-15T14:43:35.612Z,14.84
2019-05-15T14:45:13.325Z,14.85
2019-05-15T14:46:50.847Z,14.85
2019-05-15T14:48:28.154Z,14.86
2019-05-15T14:50:05.403Z,14.86
2019-05-15T14:51:41.281Z,14.85
2019-05-15T14:53:18.672Z,14.84
2019-05-15T14:54:55.017Z,14.84
2019-05-15T14:56:31.165Z,14.84
2019-05-15T14:58:08.316Z,14.84
2019-05-15T14:59:44.353Z,14.83
2019-05-15T15:01:20.257Z,14.82
2019-05-15T15:02:58.668Z,14.82
2019-05-15T15:04:33.734Z,14.80
2019-05-15T15:06:10.440Z,14.80
2019-05-15T15:07:49.138Z,14.80
2019-05-15T15:09:25.137Z,14.79
2019-05-15T15:11:01.215Z,14.79
2019-05-15T15:12:39.788Z,14.78
2019-05-15T15:14:17.903Z,14.78
2019-05-15T15:15:53.561Z,14.78
2019-05-15T15:17:29.451Z,14.77
2019-05-15T15:19:05.482Z,14.78
2019-05-15T15:20:42.540Z,14.78
2019-05-15T15:22:18.427Z,14.79
2019-05-15T15:23:54.325Z,14.79
2019-05-15T15:25:30.233Z,14.79
2019-05-15T15:27:08.273Z,14.78
2019-05-15T15:28:44.022Z,14.79
2019-05-15T15:30:21.140Z,14.79
2019-05-15T15:31:58.954Z,14.78
2019-05-15T15:33:35.995Z,14.78
2019-05-15T15:35:14.520Z,14.77
2019-05-15T15:36:50.580Z,14.77
2019-05-15T15:38:38.203Z,14.77
2019-05-15T15:40:10.074Z,14.77
2019-05-15T15:41:48.406Z,14.78
2019-05-15T15:43:23.792Z,14.76
2019-05-15T15:44:59.797Z,14.76
2019-05-15T15:46:35.838Z,14.75
2019-05-15T15:48:12.122Z,14.76
2019-05-15T15:49:48.038Z,14.75
2019-05-15T15:51:24.017Z,14.76
2019-05-15T15:52:59.936Z,14.77
2019-05-15T15:54:35.899Z,14.76
2019-05-15T15:56:11.850Z,14.77
2019-05-15T15:57:48.646Z,14.78
2019-05-15T15:59:24.806Z,14.79
2019-05-15T16:01:02.113Z,14.79
2019-05-15T16:02:41.058Z,14.80
2019-05-15T16:04:15.926Z,14.81
2019-05-15T16:05:52.271Z,14.83
2019-05-15T16:07:28.370Z,14.87
2019-05-15T16:09:08.806Z,14.87
2019-05-15T16:10:44.835Z,14.87
2019-05-15T16:12:20.924Z,14.89
2019-05-15T16:13:58.529Z,14.91
2019-05-15T16:15:34.686Z,14.93
2019-05-15T16:17:11.111Z,14.94
2019-05-15T16:18:49.815Z,14.95
2019-05-15T16:20:28.103Z,14.96
2019-05-15T16:22:03.918Z,14.98
2019-05-15T16:23:42.609Z,14.98
2019-05-15T16:25:18.808Z,14.99
2019-05-15T16:26:54.741Z,15.01
2019-05-15T16:28:30.856Z,15.01
2019-05-15T16:30:08.443Z,15.03
2019-05-15T16:31:44.531Z,15.03
2019-05-15T16:33:20.477Z,15.03
2019-05-15T16:34:58.322Z,15.03
2019-05-15T16:36:34.039Z,15.04
2019-05-15T16:38:11.189Z,15.05
2019-05-15T16:39:48.851Z,15.05
2019-05-15T16:41:24.861Z,15.05
2019-05-15T16:43:00.730Z,15.05
2019-05-15T16:44:38.483Z,15.05
2019-05-15T16:46:14.591Z,15.04
2019-05-15T16:47:50.554Z,15.03
2019-05-15T16:49:28.451Z,15.04
2019-05-15T16:51:04.159Z,15.03
2019-05-15T16:52:41.547Z,15.05
2019-05-15T16:54:18.238Z,15.03
2019-05-15T16:55:54.599Z,15.04
2019-05-15T16:57:38.559Z,15.04
2019-05-15T16:59:15.097Z,15.03
2019-05-15T17:00:50.796Z,15.02
2019-05-15T17:02:28.222Z,15.01
2019-05-15T17:04:03.964Z,15.01
2019-05-15T17:05:40.429Z,14.99
2019-05-15T17:07:18.080Z,14.99
2019-05-15T17:08:54.052Z,14.99
2019-05-15T17:10:29.629Z,14.97
2019-05-15T17:12:08.573Z,14.94
2019-05-15T17:13:43.338Z,14.93
2019-05-15T17:15:19.946Z,14.92
2019-05-15T17:16:58.433Z,14.91
2019-05-15T17:18:33.824Z,14.89
2019-05-15T17:20:10.318Z,14.88
2019-05-15T17:21:48.165Z,14.87
2019-05-15T17:23:24.120Z,14.85
2019-05-15T17:25:01.011Z,14.84
2019-05-15T17:26:36.563Z,14.81
2019-05-15T17:28:12.900Z,14.80
2019-05-15T17:29:49.170Z,14.77
2019-05-15T17:31:25.487Z,14.76
2019-05-15T17:33:01.119Z,14.74
2019-05-15T17:34:38.075Z,14.72
2019-05-15T17:36:13.835Z,14.70
2019-05-15T17:37:50.203Z,14.70
2019-05-15T17:39:34.575Z,14.70
2019-05-15T17:41:04.882Z,14.69
2019-05-15T17:42:40.444Z,14.68
2019-05-15T17:44:16.878Z,14.70
2019-05-15T17:45:52.560Z,14.69
2019-05-15T17:47:28.895Z,14.69
2019-05-15T17:49:08.711Z,14.69
2019-05-15T17:50:48.610Z,14.69
2019-05-15T17:52:20.189Z,14.69
2019-05-15T17:53:58.267Z,14.69
2019-05-15T17:55:33.972Z,14.69
2019-05-15T17:57:10.329Z,14.68
2019-05-15T17:58:45.891Z,14.68
2019-05-15T18:00:22.469Z,14.69
2019-05-15T18:01:59.508Z,14.69
2019-05-15T18:03:35.999Z,14.66
2019-05-15T18:05:13.579Z,14.66
2019-05-15T18:06:49.994Z,14.64
2019-05-15T18:08:28.481Z,14.62
2019-05-15T18:10:08.425Z,14.60
2019-05-15T18:11:44.663Z,14.57
2019-05-15T18:13:24.058Z,14.55
2019-05-15T18:14:59.593Z,14.53
2019-05-15T18:16:38.494Z,14.52
2019-05-15T18:18:14.500Z,14.52
2019-05-15T18:19:51.055Z,14.50
2019-05-15T18:21:28.892Z,14.50
2019-05-15T18:23:08.439Z,14.50
2019-05-15T18:24:44.365Z,14.50
2019-05-15T18:26:20.868Z,14.47
2019-05-15T18:27:59.061Z,14.45
2019-05-15T18:29:35.329Z,14.44
2019-05-15T18:31:11.179Z,14.43
2019-05-15T18:32:49.006Z,14.41
2019-05-15T18:34:25.838Z,14.39
2019-05-15T18:36:02.321Z,14.37
2019-05-15T18:37:39.287Z,14.36
2019-05-15T18:39:16.310Z,14.33
2019-05-15T18:40:52.017Z,14.32
2019-05-15T18:42:29.472Z,14.30
2019-05-15T18:44:05.256Z,14.28
2019-05-15T18:45:43.510Z,14.27
2019-05-15T18:47:23.750Z,14.25
2019-05-15T18:49:05.140Z,14.22
2019-05-15T18:50:52.985Z,14.20
2019-05-15T18:52:30.911Z,14.19
2019-05-15T18:54:08.157Z,14.15
2019-05-15T18:55:45.119Z,14.13
2019-05-15T18:57:20.770Z,14.11
2019-05-15T18:58:57.922Z,14.10
2019-05-15T19:00:36.101Z,14.08
2019-05-15T19:02:11.933Z,14.07
2019-05-15T19:03:47.598Z,14.05
2019-05-15T19:05:24.424Z,14.04
2019-05-15T19:07:00.059Z,14.03
2019-05-15T19:08:38.600Z,14.02
2019-05-15T19:10:19.480Z,14.00
2019-05-15T19:11:58.036Z,13.99
2019-05-15T19:13:33.193Z,13.98
2019-05-15T19:15:11.521Z,13.96
2019-05-15T19:16:48.495Z,13.94
2019-05-15T19:18:28.059Z,13.94
2019-05-15T19:20:04.856Z,13.94
2019-05-15T19:21:41.713Z,13.92
2019-05-15T19:23:18.193Z,13.91
2019-05-15T19:24:54.849Z,13.90
2019-05-15T19:26:30.834Z,13.89
2019-05-15T19:28:08.401Z,13.88
2019-05-15T19:29:44.218Z,13.87
2019-05-15T19:31:26.211Z,13.85
2019-05-15T19:32:58.715Z,13.85
2019-05-15T19:34:35.251Z,13.85
2019-05-15T19:36:11.130Z,13.84
2019-05-15T19:37:48.907Z,13.83
2019-05-15T19:39:27.893Z,13.83
2019-05-15T19:41:06.539Z,13.82
2019-05-15T19:42:41.450Z,13.81
2019-05-15T19:44:18.733Z,13.80
2019-05-15T19:45:58.498Z,13.79
2019-05-15T19:47:35.270Z,13.77
2019-05-15T19:49:10.832Z,13.76
2019-05-15T19:50:48.145Z,13.76
2019-05-15T19:52:23.771Z,13.75
2019-05-15T19:54:00.676Z,13.73
2019-05-15T19:55:36.316Z,13.72
2019-05-15T19:57:12.858Z,13.72
2019-05-15T19:58:51.080Z,13.70
2019-05-15T20:00:28.478Z,13.70
2019-05-15T20:02:04.454Z,13.70
2019-05-15T20:03:49.696Z,13.69
2019-05-15T20:05:18.945Z,13.69
2019-05-15T20:06:55.736Z,13.70
2019-05-15T20:08:32.364Z,13.69
2019-05-15T20:10:10.071Z,13.67
2019-05-15T20:11:47.878Z,13.67
2019-05-15T20:13:24.196Z,13.66
2019-05-15T20:14:59.920Z,13.65
2019-05-15T20:16:38.685Z,13.65
2019-05-15T20:18:13.453Z,13.64
2019-05-15T20:19:49.846Z,13.63
2019-05-15T20:21:25.634Z,13.62
2019-05-15T20:23:02.154Z,13.62
2019-05-15T20:24:38.197Z,13.62
2019-05-15T20:26:14.702Z,13.61
2019-05-15T20:27:51.469Z,13.61
2019-05-15T20:29:28.968Z,13.59
2019-05-15T20:31:04.580Z,13.58
2019-05-15T20:32:40.998Z,13.57
2019-05-15T20:34:16.579Z,13.56
2019-05-15T20:35:52.922Z,13.56
2019-05-15T20:37:29.009Z,13.56
2019-05-15T20:39:08.287Z,13.56
2019-05-15T20:40:44.058Z,13.55
2019-05-15T20:42:20.344Z,13.54
2019-05-15T20:43:58.288Z,13.54
2019-05-15T20:45:34.609Z,13.55
2019-05-15T20:47:10.181Z,13.53
2019-05-15T20:48:48.591Z,13.52
2019-05-15T20:50:24.672Z,13.52
2019-05-15T20:52:02.092Z,13.52
2019-05-15T20:53:38.117Z,13.49
2019-05-15T20:55:14.694Z,13.49
2019-05-15T20:56:52.795Z,13.48
2019-05-15T20:58:29.351Z,13.47
2019-05-15T21:00:08.143Z,13.47
2019-05-15T21:01:48.278Z,13.46
2019-05-15T21:03:23.516Z,13.44
2019-05-15T21:05:00.670Z,13.43
2019-05-15T21:06:38.727Z,13.44
2019-05-15T21:08:15.101Z,13.42